createdAt,value
2023-02-09T00:01:29.941Z,14.82
2023-02-09T00:03:58.059Z,14.85
2023-02-09T00:06:26.031Z,14.92
2023-02-09T00:08:53.739Z,15.00
2023-02-09T00:14:58.073Z,15.08
2023-02-09T00:17:25.456Z,15.03
2023-02-09T00:19:54.845Z,15.05
2023-02-09T00:22:22.341Z,15.06
2023-02-09T00:24:49.634Z,15.06
2023-02-09T00:27:16.989Z,14.98
2023-02-09T00:29:44.491Z,15.11
2023-02-09T00:32:13.413Z,15.11
2023-02-09T00:34:40.588Z,15.17
2023-02-09T00:37:07.904Z,15.06
2023-02-09T00:39:35.083Z,14.95
2023-02-09T00:42:02.323Z,15.00
2023-02-09T00:44:30.148Z,15.07
2023-02-09T00:46:57.526Z,15.03
2023-02-09T00:49:26.480Z,14.94
2023-02-09T00:51:54.096Z,14.75
2023-02-09T00:54:21.728Z,14.91
2023-02-09T00:56:49.031Z,14.94
2023-02-09T00:59:17.170Z,14.97
2023-02-09T01:01:44.793Z,15.16
2023-02-09T01:04:11.942Z,15.13
2023-02-09T01:06:40.692Z,15.02
2023-02-09T01:09:07.804Z,15.05
2023-02-09T01:11:35.245Z,15.07
2023-02-09T01:14:02.956Z,15.21
2023-02-09T01:16:30.853Z,15.37
2023-02-09T01:19:00.040Z,15.25
2023-02-09T01:21:27.686Z,15.26
2023-02-09T01:23:57.056Z,15.27
2023-02-09T01:26:24.468Z,15.27
2023-02-09T01:28:53.780Z,15.06
2023-02-09T01:31:26.013Z,15.07
2023-02-09T01:33:55.734Z,14.77
2023-02-09T01:36:23.181Z,15.01
2023-02-09T01:38:50.850Z,14.92
2023-02-09T01:41:19.895Z,15.05
2023-02-09T01:43:55.995Z,14.85
2023-02-09T01:46:25.016Z,14.85
2023-02-09T01:48:57.628Z,15.01
2023-02-09T01:51:25.914Z,14.88
2023-02-09T01:53:53.448Z,14.74
2023-02-09T01:56:28.653Z,14.84
2023-02-09T01:58:56.304Z,14.85
2023-02-09T02:01:25.005Z,15.01
2023-02-09T02:03:54.197Z,15.07
2023-02-09T02:06:22.048Z,15.25
2023-02-09T02:08:56.466Z,15.18
2023-02-09T02:11:26.644Z,15.31
2023-02-09T02:13:54.712Z,15.24
2023-02-09T02:16:41.605Z,15.13
2023-02-09T02:19:38.155Z,15.17
2023-02-09T02:22:36.129Z,15.37
2023-02-09T02:25:37.821Z,15.30
2023-02-09T02:28:31.932Z,15.19
2023-02-09T02:31:29.409Z,15.16
2023-02-09T02:34:04.844Z,15.18
2023-02-09T02:36:37.801Z,15.32
2023-02-09T02:39:12.341Z,15.30
2023-02-09T02:41:50.588Z,15.39
2023-02-09T02:44:19.212Z,15.36
2023-02-09T02:46:53.425Z,15.52
2023-02-09T02:49:29.655Z,15.06
2023-02-09T02:52:03.658Z,15.11
2023-02-09T02:54:35.636Z,15.38
2023-02-09T02:57:07.614Z,15.51
2023-02-09T02:59:39.438Z,15.53
2023-02-09T03:02:10.542Z,15.44
2023-02-09T03:04:41.404Z,15.43
2023-02-09T03:07:09.032Z,15.57
2023-02-09T03:09:36.390Z,15.36
2023-02-09T03:12:25.005Z,15.43
2023-02-09T03:15:14.373Z,15.55
2023-02-09T03:17:50.386Z,15.50
2023-02-09T03:20:30.430Z,15.51
2023-02-09T03:23:02.259Z,15.48
2023-02-09T03:25:35.479Z,15.31
2023-02-09T03:28:08.437Z,15.08
2023-02-09T03:30:37.092Z,15.23
2023-02-09T03:33:05.764Z,15.20
2023-02-09T03:35:40.323Z,14.95
2023-02-09T03:38:07.766Z,14.73
2023-02-09T03:40:35.377Z,14.69
2023-02-09T03:43:02.981Z,14.72
2023-02-09T03:45:30.356Z,14.82
2023-02-09T03:47:57.742Z,14.94
2023-02-09T03:50:25.241Z,14.90
2023-02-09T03:52:54.187Z,14.91
2023-02-09T03:55:21.297Z,14.88
2023-02-09T03:57:49.085Z,14.91
2023-02-09T04:00:16.574Z,14.91
2023-02-09T04:02:44.547Z,14.87
2023-02-09T04:05:13.993Z,14.85
2023-02-09T04:07:41.500Z,14.75
2023-02-09T04:10:10.555Z,14.74
2023-02-09T04:12:37.891Z,14.72
2023-02-09T04:15:10.158Z,14.71
2023-02-09T04:17:37.768Z,14.57
2023-02-09T04:20:06.211Z,14.47
2023-02-09T04:22:33.589Z,14.41
2023-02-09T04:25:01.331Z,14.43
2023-02-09T04:27:30.420Z,14.29
2023-02-09T04:29:57.657Z,14.06
2023-02-09T04:32:26.439Z,14.03
2023-02-09T04:34:53.786Z,13.94
2023-02-09T04:37:20.988Z,13.84
2023-02-09T04:39:48.287Z,13.71
2023-02-09T04:42:15.445Z,13.69
2023-02-09T04:44:44.004Z,13.50
2023-02-09T04:47:11.338Z,13.33
2023-02-09T04:49:38.808Z,13.22
2023-02-09T04:52:06.173Z,13.11
2023-02-09T04:54:34.573Z,12.90
2023-02-09T04:57:01.893Z,12.76
2023-02-09T04:59:29.325Z,12.72
2023-02-09T05:01:58.490Z,12.63
2023-02-09T05:04:25.861Z,12.49
2023-02-09T05:06:53.040Z,12.37
2023-02-09T05:09:21.282Z,12.48
2023-02-09T05:11:48.441Z,12.46
2023-02-09T05:14:16.035Z,12.32
2023-02-09T05:16:43.973Z,12.25
2023-02-09T05:19:13.600Z,12.08
2023-02-09T05:21:40.811Z,11.88
2023-02-09T05:24:08.408Z,11.91
2023-02-09T05:26:35.568Z,11.90
2023-02-09T05:29:03.357Z,11.91
2023-02-09T05:31:30.852Z,11.95
2023-02-09T05:33:58.354Z,11.98
2023-02-09T05:36:27.443Z,11.91
2023-02-09T05:38:55.051Z,11.94
2023-02-09T05:41:22.173Z,12.04
2023-02-09T05:43:49.548Z,12.16
2023-02-09T05:46:16.995Z,11.96
2023-02-09T05:48:44.216Z,11.87
2023-02-09T05:51:11.435Z,11.89
2023-02-09T05:53:40.983Z,11.90
2023-02-09T05:56:08.172Z,11.93
2023-02-09T05:58:35.289Z,11.99
2023-02-09T06:01:02.709Z,12.09
2023-02-09T06:03:30.071Z,12.29
2023-02-09T06:05:57.228Z,12.42
2023-02-09T06:08:24.593Z,12.37
2023-02-09T06:10:53.590Z,12.32
2023-02-09T06:13:20.916Z,12.27
2023-02-09T06:15:48.476Z,12.05
2023-02-09T06:18:15.834Z,11.90
2023-02-09T06:20:43.312Z,11.81
2023-02-09T06:23:11.017Z,11.73
2023-02-09T06:25:39.608Z,11.71
2023-02-09T06:28:08.398Z,11.82
2023-02-09T06:30:35.966Z,11.88
2023-02-09T06:33:03.447Z,11.78
2023-02-09T06:35:30.845Z,11.64
2023-02-09T06:37:58.409Z,11.53
2023-02-09T06:40:25.661Z,11.42
2023-02-09T06:42:52.877Z,11.33
2023-02-09T06:45:22.698Z,11.34
2023-02-09T06:47:49.898Z,11.30
2023-02-09T06:50:17.541Z,11.21
2023-02-09T06:52:45.132Z,11.18
2023-02-09T06:55:13.021Z,11.18
2023-02-09T06:57:41.134Z,11.12
2023-02-09T07:00:10.836Z,11.09
2023-02-09T07:02:42.320Z,11.09
2023-02-09T07:05:09.955Z,11.03
2023-02-09T07:07:37.605Z,10.98
2023-02-09T07:10:06.221Z,10.86
2023-02-09T07:12:33.781Z,10.81
2023-02-09T07:15:01.158Z,10.78
2023-02-09T07:17:29.300Z,10.90
2023-02-09T07:19:58.623Z,11.02
2023-02-09T07:22:26.159Z,11.19
2023-02-09T07:24:54.074Z,11.18
2023-02-09T07:27:21.372Z,11.10
2023-02-09T07:29:49.040Z,10.98
2023-02-09T07:32:16.425Z,11.11
2023-02-09T07:34:44.595Z,11.29
2023-02-09T07:37:13.922Z,11.25
2023-02-09T07:39:41.070Z,11.31
2023-02-09T07:42:08.252Z,11.47
2023-02-09T07:44:35.834Z,11.61
2023-02-09T07:47:03.092Z,11.69
2023-02-09T07:49:30.229Z,11.68
2023-02-09T07:51:57.914Z,11.71
2023-02-09T07:54:27.579Z,11.75
2023-02-09T07:56:55.573Z,11.79
2023-02-09T07:59:23.184Z,11.81
2023-02-09T08:01:50.570Z,11.88
2023-02-09T08:04:17.864Z,12.00
2023-02-09T08:06:46.642Z,12.09
2023-02-09T08:09:16.367Z,12.24
2023-02-09T08:11:50.428Z,12.32
2023-02-09T08:14:21.109Z,12.25
2023-02-09T08:16:51.665Z,12.29
2023-02-09T08:19:23.160Z,12.30
2023-02-09T08:21:51.208Z,12.35
2023-02-09T08:24:21.641Z,12.42
2023-02-09T08:26:50.415Z,12.52
2023-02-09T08:29:17.991Z,12.62
2023-02-09T08:31:45.603Z,12.96
2023-02-09T08:34:14.701Z,13.06
2023-02-09T08:36:42.160Z,13.21
2023-02-09T08:39:10.309Z,13.15
2023-02-09T08:41:37.608Z,13.13
2023-02-09T08:44:06.431Z,12.90
2023-02-09T08:46:35.432Z,12.85
2023-02-09T08:49:02.718Z,12.88
2023-02-09T08:51:30.016Z,12.83
2023-02-09T08:53:57.450Z,12.77
2023-02-09T08:56:24.705Z,12.87
2023-02-09T08:58:51.877Z,12.91
2023-02-09T09:01:20.739Z,12.91
2023-02-09T09:03:47.975Z,12.87
2023-02-09T09:06:15.376Z,12.98
2023-02-09T09:08:42.994Z,13.14
2023-02-09T09:11:10.546Z,13.25
2023-02-09T09:13:38.250Z,13.27
2023-02-09T09:16:06.942Z,13.27
2023-02-09T09:18:36.016Z,13.52
2023-02-09T09:21:03.390Z,13.70
2023-02-09T09:23:31.038Z,14.09
2023-02-09T09:26:01.000Z,14.26
2023-02-09T09:28:28.308Z,14.20
2023-02-09T09:30:56.109Z,14.26
2023-02-09T09:33:23.359Z,14.28
2023-02-09T09:35:52.038Z,14.39
2023-02-09T09:38:19.272Z,14.30
2023-02-09T09:40:46.571Z,14.42
2023-02-09T09:43:23.592Z,14.53
2023-02-09T09:45:51.289Z,14.56
2023-02-09T09:48:23.766Z,14.67
2023-02-09T09:50:55.905Z,14.74
2023-02-09T09:53:27.850Z,14.67
2023-02-09T09:55:57.778Z,14.70
2023-02-09T09:58:25.407Z,14.86
2023-02-09T10:00:53.475Z,14.84
2023-02-09T10:03:23.074Z,15.11
2023-02-09T10:05:53.559Z,15.17
2023-02-09T10:08:30.314Z,15.32
2023-02-09T10:11:00.880Z,15.37
2023-02-09T10:13:35.019Z,15.64
2023-02-09T10:16:04.128Z,15.94
2023-02-09T10:18:32.649Z,16.25
2023-02-09T10:21:06.514Z,16.17
2023-02-09T10:23:40.362Z,15.78
2023-02-09T10:26:22.838Z,15.91
2023-02-09T10:28:52.350Z,15.81
2023-02-09T10:31:24.169Z,15.82
2023-02-09T10:33:56.624Z,15.51
2023-02-09T10:36:29.296Z,15.57
2023-02-09T10:39:18.395Z,15.44
2023-02-09T10:41:48.705Z,15.49
2023-02-09T10:44:22.158Z,15.61
2023-02-09T10:46:50.270Z,15.15
2023-02-09T10:49:32.399Z,15.58
2023-02-09T10:52:20.641Z,15.83
2023-02-09T10:54:50.845Z,15.99
2023-02-09T10:57:26.292Z,15.87
2023-02-09T10:59:56.138Z,16.04
2023-02-09T11:02:37.888Z,15.74
2023-02-09T11:05:32.938Z,15.80
2023-02-09T11:08:12.101Z,15.66
2023-02-09T11:10:45.756Z,15.79
2023-02-09T11:13:20.701Z,15.98
2023-02-09T11:16:06.800Z,16.35
2023-02-09T11:18:35.638Z,16.11
2023-02-09T11:21:11.791Z,16.18
2023-02-09T11:23:55.094Z,15.86
2023-02-09T11:26:43.190Z,15.84
2023-02-09T11:29:20.648Z,16.01
2023-02-09T11:32:07.302Z,16.26
2023-02-09T11:34:52.559Z,16.34
2023-02-09T11:37:30.262Z,16.03
2023-02-09T11:40:16.183Z,16.21
2023-02-09T11:42:50.698Z,16.12
2023-02-09T11:45:25.074Z,16.13
2023-02-09T11:48:05.343Z,16.31
2023-02-09T11:50:56.063Z,16.32
2023-02-09T11:53:32.888Z,16.86
2023-02-09T11:56:05.516Z,16.86
2023-02-09T11:58:47.072Z,17.22
2023-02-09T12:01:28.305Z,17.53
2023-02-09T12:04:10.760Z,17.10
2023-02-09T12:06:41.968Z,17.08
2023-02-09T12:09:33.925Z,17.34
2023-02-09T12:12:13.342Z,17.46
2023-02-09T12:15:13.340Z,16.95
2023-02-09T12:17:48.509Z,17.50
2023-02-09T12:20:29.706Z,18.01
2023-02-09T12:23:00.661Z,18.57
2023-02-09T12:25:55.162Z,19.19
2023-02-09T12:28:46.235Z,18.85
2023-02-09T12:31:25.837Z,18.87
2023-02-09T12:34:14.871Z,18.83
2023-02-09T12:37:17.229Z,19.00
2023-02-09T12:40:19.730Z,19.46
2023-02-09T12:43:09.797Z,19.70
2023-02-09T12:45:40.283Z,19.58
2023-02-09T12:48:16.522Z,19.50
2023-02-09T12:50:52.915Z,19.33
2023-02-09T12:53:50.514Z,19.01
2023-02-09T12:56:30.148Z,18.82
2023-02-09T12:59:14.399Z,18.70
2023-02-09T13:02:21.524Z,18.77
2023-02-09T13:05:11.429Z,19.05
2023-02-09T13:07:50.158Z,19.36
2023-02-09T13:10:25.916Z,19.36
2023-02-09T13:12:58.252Z,19.09
2023-02-09T13:15:29.447Z,18.58
2023-02-09T13:18:07.091Z,18.16
2023-02-09T13:21:04.372Z,18.36
2023-02-09T13:23:42.101Z,18.31
2023-02-09T13:26:21.883Z,18.77
2023-02-09T13:28:49.607Z,18.71
2023-02-09T13:31:34.572Z,18.62
2023-02-09T13:34:10.809Z,18.12
2023-02-09T13:36:46.055Z,17.99
2023-02-09T13:39:23.042Z,17.83
2023-02-09T13:41:51.657Z,17.76
2023-02-09T13:44:21.582Z,17.89
2023-02-09T13:46:55.296Z,17.94
2023-02-09T13:49:23.592Z,18.28
2023-02-09T13:52:11.229Z,18.31
2023-02-09T13:54:38.872Z,18.60
2023-02-09T13:57:10.529Z,18.56
2023-02-09T13:59:41.939Z,18.47
2023-02-09T14:02:19.706Z,17.98
2023-02-09T14:04:51.991Z,17.85
2023-02-09T14:07:23.488Z,18.13
2023-02-09T14:09:55.147Z,18.06
2023-02-09T14:12:31.679Z,18.29
2023-02-09T14:14:59.881Z,18.73
2023-02-09T14:17:29.570Z,19.12
2023-02-09T14:19:59.499Z,18.67
2023-02-09T14:22:33.919Z,18.38
2023-02-09T14:25:06.672Z,18.43
2023-02-09T14:27:40.061Z,18.68
2023-02-09T14:30:15.799Z,18.87
2023-02-09T14:32:43.374Z,18.89
2023-02-09T14:35:20.130Z,18.28
2023-02-09T14:37:51.067Z,18.01
2023-02-09T14:40:29.714Z,17.79
2023-02-09T14:42:59.712Z,17.41
2023-02-09T14:45:40.605Z,17.32
2023-02-09T14:48:19.338Z,17.53
2023-02-09T14:50:47.639Z,17.68
2023-02-09T14:53:18.342Z,17.58
2023-02-09T14:55:46.452Z,17.60
2023-02-09T14:58:22.104Z,17.65
2023-02-09T15:00:50.637Z,17.95
2023-02-09T15:03:18.297Z,18.00
2023-02-09T15:05:47.449Z,17.83
2023-02-09T15:08:18.580Z,17.94
2023-02-09T15:10:48.867Z,17.69
2023-02-09T15:13:16.446Z,17.39
2023-02-09T15:15:44.734Z,17.31
2023-02-09T15:18:19.303Z,17.44
2023-02-09T15:20:47.396Z,17.30
2023-02-09T15:23:17.285Z,17.48
2023-02-09T15:25:45.826Z,17.35
2023-02-09T15:28:18.936Z,17.30
2023-02-09T15:30:46.538Z,16.95
2023-02-09T15:33:13.924Z,17.18
2023-02-09T15:35:41.581Z,17.10
2023-02-09T15:38:11.601Z,17.10
2023-02-09T15:40:43.032Z,17.07
2023-02-09T15:43:12.595Z,17.07
2023-02-09T15:45:39.886Z,17.02
2023-02-09T15:48:07.782Z,17.06
2023-02-09T15:50:37.506Z,16.97
2023-02-09T15:53:06.979Z,16.83
2023-02-09T15:55:37.301Z,16.79
2023-02-09T15:58:13.758Z,16.52
2023-02-09T16:00:41.133Z,16.52
2023-02-09T16:03:15.384Z,16.49
2023-02-09T16:05:42.999Z,16.43
2023-02-09T16:08:18.105Z,16.39
2023-02-09T16:10:47.595Z,16.41
2023-02-09T16:13:18.321Z,16.44
2023-02-09T16:15:45.838Z,16.38
2023-02-09T16:18:13.585Z,16.35
2023-02-09T16:20:43.002Z,16.42
2023-02-09T16:23:20.292Z,16.31
2023-02-09T16:25:50.139Z,16.15
2023-02-09T16:28:20.090Z,16.07
2023-02-09T16:30:50.341Z,16.05
2023-02-09T16:33:18.130Z,15.93
2023-02-09T16:35:50.421Z,15.86
2023-02-09T16:38:19.860Z,15.69
2023-02-09T16:40:47.466Z,15.62
2023-02-09T16:43:15.800Z,15.65
2023-02-09T16:46:00.927Z,15.64
2023-02-09T16:48:31.873Z,15.55
2023-02-09T16:50:59.534Z,15.50
2023-02-09T16:53:30.937Z,15.46
2023-02-09T16:55:58.323Z,15.37
2023-02-09T16:58:25.159Z,15.27
2023-02-09T17:00:54.407Z,15.18
2023-02-09T17:03:28.289Z,15.10
2023-02-09T17:05:56.983Z,15.05
2023-02-09T17:08:26.065Z,15.00
2023-02-09T17:10:55.966Z,14.86
2023-02-09T17:13:23.465Z,14.87
2023-02-09T17:15:55.101Z,14.73
2023-02-09T17:18:27.030Z,14.70
2023-02-09T17:20:57.428Z,14.63
2023-02-09T17:23:26.641Z,14.54
2023-02-09T17:25:54.920Z,14.43
2023-02-09T17:28:22.144Z,14.35
2023-02-09T17:30:50.054Z,14.19
2023-02-09T17:33:22.435Z,14.16
2023-02-09T17:36:22.492Z,14.10
2023-02-09T17:38:38.750Z,13.96
2023-02-09T17:41:12.248Z,13.99
2023-02-09T17:43:39.744Z,13.96
2023-02-09T17:46:07.278Z,13.98
2023-02-09T17:48:35.948Z,13.95
2023-02-09T17:51:03.697Z,13.66
2023-02-09T17:53:37.715Z,13.52
2023-02-09T17:56:09.656Z,13.43
2023-02-09T17:58:37.069Z,13.46
2023-02-09T18:01:20.634Z,13.39
2023-02-09T18:03:49.580Z,13.26
2023-02-09T18:06:20.665Z,13.22
2023-02-09T18:08:47.924Z,13.18
2023-02-09T18:11:16.096Z,13.12
2023-02-09T18:13:43.513Z,13.09
2023-02-09T18:16:11.228Z,13.03
2023-02-09T18:18:38.370Z,12.94
2023-02-09T18:21:13.703Z,13.00
2023-02-09T18:23:42.636Z,13.03
2023-02-09T18:26:10.132Z,13.07
2023-02-09T18:28:37.524Z,13.09
2023-02-09T18:31:05.427Z,13.16
2023-02-09T18:33:33.455Z,13.22
2023-02-09T18:36:00.704Z,13.23
2023-02-09T18:38:29.699Z,13.21
2023-02-09T18:40:56.921Z,13.29
2023-02-09T18:43:24.302Z,13.38
2023-02-09T18:45:52.007Z,13.45
2023-02-09T18:48:19.292Z,13.48
2023-02-09T18:50:46.677Z,13.45
2023-02-09T18:53:15.556Z,13.41
2023-02-09T18:55:44.820Z,13.42
2023-02-09T18:58:12.366Z,13.47
2023-02-09T19:00:40.098Z,13.39
2023-02-09T19:03:07.330Z,13.38
2023-02-09T19:05:35.152Z,13.40
2023-02-09T19:08:02.678Z,13.38
2023-02-09T19:10:31.034Z,13.40
2023-02-09T19:13:00.184Z,13.43
2023-02-09T19:15:27.511Z,13.44
2023-02-09T19:17:56.813Z,13.46
2023-02-09T19:20:26.300Z,13.45
2023-02-09T19:22:54.141Z,13.45
2023-02-09T19:25:24.091Z,13.47
2023-02-09T19:27:54.598Z,13.47
2023-02-09T19:30:24.845Z,13.54
2023-02-09T19:32:52.928Z,13.55
2023-02-09T19:35:20.497Z,13.54
2023-02-09T19:37:50.794Z,13.56
2023-02-09T19:40:18.288Z,13.51
2023-02-09T19:42:45.531Z,13.48
2023-02-09T19:45:12.887Z,13.50
2023-02-09T19:47:41.441Z,13.52
2023-02-09T19:50:10.394Z,13.52
2023-02-09T19:52:38.076Z,13.44
2023-02-09T19:55:06.114Z,13.31
2023-02-09T19:57:33.573Z,13.25
2023-02-09T20:00:01.167Z,13.37
2023-02-09T20:02:28.404Z,13.42
2023-02-09T20:04:57.350Z,13.37
2023-02-09T20:07:24.546Z,13.34
2023-02-09T20:09:52.173Z,13.31
2023-02-09T20:12:19.566Z,13.27
2023-02-09T20:14:46.732Z,13.18
2023-02-09T20:17:14.084Z,13.06
2023-02-09T20:19:41.718Z,12.94
2023-02-09T20:22:12.138Z,12.97
2023-02-09T20:24:39.586Z,12.98
2023-02-09T20:27:06.890Z,13.05
2023-02-09T20:29:34.446Z,13.07
2023-02-09T20:32:02.068Z,13.03
2023-02-09T20:34:29.686Z,12.99
2023-02-09T20:36:57.766Z,12.95
2023-02-09T20:39:26.434Z,12.80
2023-02-09T20:41:57.839Z,12.86
2023-02-09T20:44:24.983Z,12.80
2023-02-09T20:46:52.433Z,12.92
2023-02-09T20:49:20.228Z,12.83
2023-02-09T20:51:48.052Z,12.73
2023-02-09T20:54:15.867Z,12.65
2023-02-09T20:56:45.167Z,12.59
2023-02-09T20:59:12.993Z,12.60
2023-02-09T21:01:40.444Z,12.56
2023-02-09T21:04:08.509Z,12.63
2023-02-09T21:06:36.562Z,12.88
2023-02-09T21:09:04.849Z,12.91
2023-02-09T21:11:32.249Z,12.93
2023-02-09T21:14:00.848Z,12.93
2023-02-09T21:16:28.697Z,12.92
2023-02-09T21:18:56.183Z,12.95
2023-02-09T21:21:23.531Z,12.96
2023-02-09T21:23:50.837Z,12.97
2023-02-09T21:26:19.421Z,12.99
2023-02-09T21:28:46.572Z,13.00
2023-02-09T21:31:18.700Z,12.89
2023-02-09T21:33:46.604Z,12.88
2023-02-09T21:36:14.432Z,12.97
2023-02-09T21:38:41.839Z,12.99
2023-02-09T21:41:11.210Z,12.89
2023-02-09T21:43:38.706Z,12.89
2023-02-09T21:46:05.991Z,12.91
2023-02-09T21:48:34.771Z,12.79
2023-02-09T21:51:01.994Z,12.80
2023-02-09T21:53:29.227Z,12.79
2023-02-09T21:55:56.612Z,12.84
2023-02-09T21:58:23.976Z,12.82
2023-02-09T22:00:57.261Z,12.80
2023-02-09T22:03:24.474Z,12.82
2023-02-09T22:05:58.155Z,12.73
2023-02-09T22:08:25.397Z,12.64
2023-02-09T22:10:52.932Z,12.58
2023-02-09T22:13:20.984Z,12.54
2023-02-09T22:15:48.202Z,12.60
2023-02-09T22:18:15.377Z,12.64
2023-02-09T22:20:43.977Z,12.71
2023-02-09T22:23:13.276Z,12.80
2023-02-09T22:25:40.559Z,12.79
2023-02-09T22:28:08.155Z,12.72
2023-02-09T22:30:35.570Z,12.65
2023-02-09T22:33:02.874Z,12.54
2023-02-09T22:35:30.724Z,12.52
2023-02-09T22:37:58.199Z,12.58
2023-02-09T22:40:26.818Z,12.58
2023-02-09T22:42:54.098Z,12.60
2023-02-09T22:45:22.164Z,12.64
2023-02-09T22:47:49.572Z,12.59
2023-02-09T22:50:16.465Z,12.46
2023-02-09T22:52:43.673Z,12.63
2023-02-09T22:55:10.875Z,12.68
2023-02-09T22:57:40.009Z,12.68
2023-02-09T23:00:12.143Z,12.74
2023-02-09T23:02:39.570Z,12.69
2023-02-09T23:05:07.195Z,12.71
2023-02-09T23:07:34.559Z,12.70
2023-02-09T23:10:02.181Z,12.70
2023-02-09T23:12:29.406Z,12.62
2023-02-09T23:14:57.951Z,12.55
2023-02-09T23:17:25.223Z,12.44
2023-02-09T23:19:52.501Z,12.34
2023-02-09T23:22:20.252Z,12.35
2023-02-09T23:24:47.842Z,12.44
2023-02-09T23:27:15.167Z,12.36
2023-02-09T23:29:42.324Z,12.30
2023-02-09T23:32:11.151Z,12.26
2023-02-09T23:34:38.395Z,12.20
2023-02-09T23:37:13.480Z,12.12
2023-02-09T23:39:46.408Z,12.10
2023-02-09T23:42:13.717Z,11.98
2023-02-09T23:44:40.824Z,11.94
2023-02-09T23:47:08.318Z,11.88
2023-02-09T23:49:37.076Z,11.98
2023-02-09T23:52:04.516Z,11.98
2023-02-09T23:54:32.056Z,12.00
2023-02-09T23:56:59.417Z,11.90
2023-02-09T23:59:26.068Z,11.80
